Flight Track Log - Related Links

Times and Time Zones

All times are in EDT time to prevent confusion due to time zone crossing. See the N3840U flight status page for this flight to view local times or setup timezone preferences in your user account.

Time Position Orientation Groundspeed Altitude Reporting Facility
EDT Latitude Longitude Course Direction KTS MPH feet Rate Location/Type
Sun 08:18:00 PM 30.6627 -86.4339 North  Level FlightAware Approximate
Sun 08:19:00 PM 30.7004 -86.4333 North  Level FlightAware Approximate
Sun 08:20:00 PM 30.7381 -86.4328 North  Level FlightAware Approximate
Sun 08:21:00 PM 30.7757 -86.4286 North  Level FlightAware Approximate
Sun 08:22:00 PM 30.8132 -86.4245 North  Level FlightAware Approximate
Sun 08:23:00 PM 30.8508 -86.4203 North  Level FlightAware Approximate
Sun 08:24:00 PM 30.8884 -86.4161 North  Level FlightAware Approximate
Sun 08:25:00 PM 30.9259 -86.4120 North  Level FlightAware Approximate
Sun 08:26:00 PM 30.9635 -86.4078 North  Level FlightAware Approximate
Sun 08:26:27 PM 30.8489 -86.3961 North 163 188 9,000  Level Jacksonville Center
Sun 08:27:00 PM 31.0011 -86.4036 North  Level FlightAware Approximate
Sun 08:27:10 PM 30.8800 -86.3975 358° North 165 190 9,000  Level Jacksonville Center
Sun 08:28:00 PM 31.0387 -86.3994 North  Level FlightAware Approximate
Sun 08:28:10 PM 30.9261 -86.3894 North 165 190 9,000  Level Jacksonville Center
Sun 08:29:00 PM 31.0762 -86.3950 North  Level FlightAware Approximate
Sun 08:29:11 PM 30.9744 -86.3839 North 166 191 9,000  Level Jacksonville Center
Sun 08:30:00 PM 31.1138 -86.3906 North  Level FlightAware Approximate
Sun 08:30:12 PM 31.0206 -86.3808 North 168 193 9,000  Level Jacksonville Center
Sun 08:31:00 PM 31.1513 -86.3862 North  Level FlightAware Approximate
Sun 08:31:12 PM 31.0664 -86.3753 North 167 192 9,000  Level Jacksonville Center
Sun 08:32:13 PM 31.1125 -86.3719 North 165 190 9,000  Level Jacksonville Center
Sun 08:33:14 PM 31.1586 -86.3664 North 167 192 9,000  Level Jacksonville Center
Sun 08:34:14 PM 31.2047 -86.3633 North 166 191 9,000  Level Jacksonville Center
Sun 08:35:15 PM 31.2506 -86.3603 North 164 189 9,000  Level Jacksonville Center
Sun 08:36:27 PM 31.3050 -86.3525 North 166 191 9,000  Level Jacksonville Center
Sun 08:37:28 PM 31.3533 -86.3494 North 163 188 9,000  Level Jacksonville Center
Sun 08:38:29 PM 31.3972 -86.3436 North 164 189 9,000  Level Jacksonville Center
Sun 08:39:23 PM 31.4411 -86.3406 North 163 188 9,000  Level Jacksonville Center
Sun 08:40:24 PM 31.4831 -86.3372 North 162 186 9,000  Level Jacksonville Center
Sun 08:41:24 PM 31.5311 -86.3317 North 165 190 9,000  Level Jacksonville Center
Sun 08:42:19 PM 31.5731 -86.3283 North 166 191 9,000  Level Jacksonville Center
Sun 08:43:19 PM 31.6211 -86.3253 North 165 190 9,000  Level Jacksonville Center
Sun 08:44:20 PM 31.6631 -86.3194 North 161 185 9,000  Level Jacksonville Center
Sun 08:45:21 PM 31.7111 -86.3164 North 160 184 9,000  Level Jacksonville Center
Sun 08:46:21 PM 31.7550 -86.3131 North 162 186 9,000  Level Jacksonville Center
Sun 08:48:03 PM 31.8300 -86.3169 357° North 163 188 9,000  Level Atlanta Center
Sun 08:52:03 PM 32.0097 -86.2972 North 163 188 9,000  Level Atlanta Center
Sun 08:55:40 PM 32.1731 -86.2792 North 165 190 9,000  Level Atlanta Center
Sun 08:58:52 PM 32.3153 -86.2581 North 158 182 9,000  Level Atlanta Center
Sun 09:03:17 PM 32.5119 -86.2336 North 162 186 9,000  Level Atlanta Center
Sun 09:07:17 PM 32.6897 -86.2133 North 162 186 9,000  Level Atlanta Center
Sun 09:11:09 PM 32.8672 -86.2053 North 160 184 9,000  Level Atlanta Center
Sun 09:11:46 PM 32.8944 -86.2033 North 161 185 9,000  Level Atlanta Center
Sun 09:12:00 PM 32.8398 -86.2016 North  Level Estimated
Sun 09:12:46 PM 32.9406 -86.1972 North 161 185 9,000  Level Atlanta Center
Sun 09:13:47 PM 32.9844 -86.1933 North 160 184 9,000  Level Atlanta Center
Sun 09:14:47 PM 33.0261 -86.1894 North 159 183 9,000  Level Atlanta Center
Sun 09:15:48 PM 33.0742 -86.1831 North 163 188 9,000  Level Atlanta Center
Sun 09:16:00 PM 33.0177 -86.1819 North  Level Estimated
Sun 09:16:49 PM 33.1181 -86.1792 North 164 189 9,000  Level Atlanta Center
Sun 09:17:49 PM 33.1683 -86.1756 North 161 185 9,000  Level Atlanta Center
Sun 09:18:50 PM 33.2122 -86.1692 North 162 186 9,000 -149 Level Atlanta Center
Sun 09:19:50 PM 33.2583 -86.1653 North 165 190 8,700 -347 Descending Atlanta Center
Sun 09:20:51 PM 33.3064 -86.1589 North 172 198 8,300 -469 Descending Atlanta Center
Sun 09:21:58 PM 33.3567 -86.1553 North 172 198 7,700 -567 Descending Atlanta Center
Sun 09:22:58 PM 33.4108 -86.1492 North 179 206 7,100 -645 Descending Atlanta Center
Sun 09:23:59 PM 33.4611 -86.1453 North 181 208 6,400 -639 Descending Atlanta Center
Sun 09:25:00 PM 33.5133 -86.1367 North 187 215 5,800 -595 Descending Atlanta Center
Sun 09:26:00 PM 33.5636 -86.1328 North 181 208 5,200 -378 Descending Atlanta Center
Sun 09:27:07 PM 33.6158 -86.1267 North 178 205 5,000 -99 Descending Atlanta Center
Sun 09:28:01 PM 33.6578 -86.1228 North 163 188 5,000  Level Atlanta Center
Sun 09:29:02 PM 33.7036 -86.1214 North 163 188 5,000  Level Atlanta Center
Sun 09:30:03 PM 33.7517 -86.1150 North 159 183 5,000  Level Atlanta Center
Sun 09:31:03 PM 33.7956 -86.1111 North 161 185 5,000  Level Atlanta Center
Sun 09:33:00 PM 33.8679 -86.0945 11° North  Level FlightAware Approximate
Sun 09:40:00 PM 33.9667 -86.0833 North  Level FlightAware Approximate
Sun 09:41:00 PM 33.9726 -86.0891 220° Southwest  Level Estimated

Login

Don't have an account? Register now (free) for customized features, flight alerts, and more!